createdAt,value
2023-04-30T00:01:38.495Z,100372.71
2023-04-30T00:06:45.583Z,100379.80
2023-04-30T00:11:52.473Z,100378.48
2023-04-30T00:16:59.537Z,100381.60
2023-04-30T00:22:06.607Z,100380.26
2023-04-30T00:27:13.593Z,100387.86
2023-04-30T00:32:20.772Z,100390.15
2023-04-30T00:37:27.609Z,100396.21
2023-04-30T00:42:34.626Z,100400.40
2023-04-30T00:47:41.986Z,100403.19
2023-04-30T00:52:49.169Z,100410.23
2023-04-30T00:57:56.710Z,100416.64
2023-04-30T01:03:04.312Z,100424.90
2023-04-30T01:08:11.889Z,100428.16
2023-04-30T01:13:30.267Z,100432.69
2023-04-30T01:18:45.446Z,100436.69
2023-04-30T01:24:07.717Z,100434.68
2023-04-30T01:29:15.919Z,100438.66
2023-04-30T01:34:22.991Z,100444.60
2023-04-30T01:39:48.980Z,100442.36
2023-04-30T01:45:14.366Z,100445.83
2023-04-30T01:50:32.552Z,100444.18
2023-04-30T01:55:44.206Z,100447.17
2023-04-30T02:00:49.770Z,100447.40
2023-04-30T02:05:56.898Z,100452.96
2023-04-30T02:11:04.815Z,100456.30
2023-04-30T02:16:12.317Z,100463.87
2023-04-30T02:21:19.422Z,100474.00
2023-04-30T02:26:27.717Z,100471.85
2023-04-30T02:31:34.609Z,100475.66
2023-04-30T02:36:41.487Z,100478.08
2023-04-30T02:41:48.336Z,100478.95
2023-04-30T02:46:55.330Z,100478.60
2023-04-30T02:52:02.439Z,100482.34
2023-04-30T02:57:09.462Z,100484.34
2023-04-30T03:02:16.905Z,100496.40
2023-04-30T03:07:24.145Z,100496.43
2023-04-30T03:12:30.996Z,100500.88
2023-04-30T03:17:37.898Z,100504.98
2023-04-30T03:22:44.946Z,100508.81
2023-04-30T03:27:51.944Z,100516.70
2023-04-30T03:32:58.827Z,100525.46
2023-04-30T03:38:05.865Z,100533.39
2023-04-30T03:43:13.112Z,100538.25
2023-04-30T03:48:20.125Z,100542.89
2023-04-30T03:53:27.417Z,100547.69
2023-04-30T03:58:34.210Z,100555.39
2023-04-30T04:03:41.157Z,100569.89
2023-04-30T04:08:48.150Z,100577.91
2023-04-30T04:13:55.784Z,100588.98
2023-04-30T04:19:02.749Z,100592.58
2023-04-30T04:24:09.902Z,100599.73
2023-04-30T04:29:16.857Z,100600.36
2023-04-30T04:34:23.924Z,100605.95
2023-04-30T04:39:30.791Z,100614.80
2023-04-30T04:44:37.795Z,100620.38
2023-04-30T04:49:45.396Z,100624.27
2023-04-30T04:54:52.293Z,100631.17
2023-04-30T04:59:59.481Z,100639.30
2023-04-30T05:05:06.996Z,100648.75
2023-04-30T05:10:14.259Z,100650.83
2023-04-30T05:15:21.415Z,100651.50
2023-04-30T05:20:28.463Z,100651.98
2023-04-30T05:25:36.563Z,100657.63
2023-04-30T05:30:43.534Z,100663.49
2023-04-30T05:35:50.508Z,100671.59
2023-04-30T05:40:57.420Z,100676.11
2023-04-30T05:46:04.272Z,100676.20
2023-04-30T05:51:11.436Z,100677.13
2023-04-30T05:56:18.285Z,100684.73
2023-04-30T06:01:29.132Z,100689.26
2023-04-30T06:06:36.269Z,100684.73
2023-04-30T06:11:45.322Z,100692.63
2023-04-30T06:16:52.616Z,100695.23
2023-04-30T06:21:59.603Z,100699.91
2023-04-30T06:27:06.924Z,100708.24
2023-04-30T06:32:13.857Z,100702.71
2023-04-30T06:37:20.850Z,100709.45
2023-04-30T06:42:27.665Z,100709.29
2023-04-30T06:47:36.495Z,100713.09
2023-04-30T06:52:43.533Z,100722.04
2023-04-30T06:57:50.459Z,100716.13
2023-04-30T07:03:00.059Z,100715.80
2023-04-30T07:08:07.857Z,100717.48
2023-04-30T07:13:14.986Z,100726.46
2023-04-30T07:18:21.906Z,100732.09
2023-04-30T07:23:30.565Z,100733.52
2023-04-30T07:28:38.151Z,100739.01
2023-04-30T07:33:44.989Z,100740.15
2023-04-30T07:38:52.391Z,100749.08
2023-04-30T07:43:59.877Z,100745.01
2023-04-30T07:49:06.793Z,100746.18
2023-04-30T07:54:15.294Z,100748.95
2023-04-30T07:59:24.553Z,100749.69
2023-04-30T08:04:31.517Z,100754.54
2023-04-30T08:09:38.467Z,100761.86
2023-04-30T08:14:45.372Z,100760.98
2023-04-30T08:19:52.671Z,100761.92
2023-04-30T08:25:01.988Z,100766.17
2023-04-30T08:30:10.886Z,100769.89
2023-04-30T08:35:18.047Z,100761.77
2023-04-30T08:40:43.707Z,100774.08
2023-04-30T08:45:53.885Z,100773.98
2023-04-30T08:51:02.570Z,100771.30
2023-04-30T08:56:11.087Z,100777.10
2023-04-30T09:01:18.300Z,100775.88
2023-04-30T09:06:25.381Z,100781.15
2023-04-30T09:11:33.264Z,100784.64
2023-04-30T09:16:51.485Z,100788.88
2023-04-30T09:21:58.417Z,100782.46
2023-04-30T09:27:19.239Z,100789.54
2023-04-30T09:32:26.415Z,100798.74
2023-04-30T09:37:41.110Z,100794.91
2023-04-30T09:43:01.763Z,100796.63
2023-04-30T09:48:17.314Z,100792.19
2023-04-30T09:53:24.932Z,100784.91
2023-04-30T09:58:36.912Z,100784.55
2023-04-30T10:03:46.540Z,100789.11
2023-04-30T10:08:57.710Z,100784.33
2023-04-30T10:14:09.183Z,100773.80
2023-04-30T10:19:20.032Z,100772.55
2023-04-30T10:24:28.213Z,100767.89
2023-04-30T10:29:35.108Z,100774.84
2023-04-30T10:34:50.524Z,100774.77
2023-04-30T10:39:57.787Z,100768.70
2023-04-30T10:45:06.467Z,100769.82
2023-04-30T10:50:14.401Z,100762.48
2023-04-30T10:55:22.321Z,100755.55
2023-04-30T11:00:31.989Z,100758.15
2023-04-30T11:05:40.168Z,100753.00
2023-04-30T11:11:01.731Z,100756.05
2023-04-30T11:16:09.211Z,100754.39
2023-04-30T11:21:16.251Z,100744.70
2023-04-30T11:26:23.978Z,100743.92
2023-04-30T11:31:37.419Z,100748.68
2023-04-30T11:36:46.906Z,100743.95
2023-04-30T11:41:54.013Z,100745.80
2023-04-30T11:47:01.237Z,100753.01
2023-04-30T11:52:09.620Z,100744.98
2023-04-30T11:57:16.896Z,100748.02
2023-04-30T12:02:24.490Z,100754.96
2023-04-30T12:07:32.304Z,100745.05
2023-04-30T12:12:39.578Z,100746.09
2023-04-30T12:17:47.503Z,100746.91
2023-04-30T12:22:54.804Z,100747.15
2023-04-30T12:28:02.142Z,100739.57
2023-04-30T12:33:13.141Z,100732.16
2023-04-30T12:38:21.609Z,100725.25
2023-04-30T12:43:28.590Z,100724.46
2023-04-30T12:48:45.951Z,100722.74
2023-04-30T12:53:52.842Z,100720.72
2023-04-30T12:58:59.980Z,100718.58
2023-04-30T13:04:06.959Z,100718.15
2023-04-30T13:09:14.056Z,100712.52
2023-04-30T13:14:21.026Z,100713.55
2023-04-30T13:19:28.334Z,100708.98
2023-04-30T13:24:35.426Z,100707.38
2023-04-30T13:29:42.903Z,100703.67
2023-04-30T13:34:52.261Z,100699.31
2023-04-30T13:39:59.558Z,100697.44
2023-04-30T13:45:08.287Z,100699.41
2023-04-30T13:50:15.534Z,100695.66
2023-04-30T13:55:23.114Z,100693.85
2023-04-30T14:00:30.072Z,100691.71
2023-04-30T14:05:37.064Z,100692.09
2023-04-30T14:10:43.954Z,100688.48
2023-04-30T14:15:51.140Z,100688.86
2023-04-30T14:20:58.159Z,100678.63
2023-04-30T14:26:05.166Z,100673.04
2023-04-30T14:31:12.213Z,100671.16
2023-04-30T14:36:19.180Z,100668.38
2023-04-30T14:41:26.194Z,100670.27
2023-04-30T14:46:34.914Z,100662.94
2023-04-30T14:51:42.029Z,100671.76
2023-04-30T14:56:49.812Z,100672.31
2023-04-30T15:01:57.272Z,100673.02
2023-04-30T15:07:04.521Z,100673.36
2023-04-30T15:12:11.436Z,100666.09
2023-04-30T15:17:18.577Z,100673.42
2023-04-30T15:22:25.681Z,100666.43
2023-04-30T15:27:33.887Z,100660.85
2023-04-30T15:32:41.771Z,100659.75
2023-04-30T15:37:48.806Z,100653.98
2023-04-30T15:42:55.778Z,100660.20
2023-04-30T15:48:02.763Z,100651.49
2023-04-30T15:53:11.726Z,100653.13
2023-04-30T15:58:18.974Z,100656.29
2023-04-30T16:03:26.252Z,100658.55
2023-04-30T16:08:34.249Z,100656.52
2023-04-30T16:13:41.237Z,100648.64
2023-04-30T16:18:48.365Z,100651.20
2023-04-30T16:23:55.400Z,100649.20
2023-04-30T16:29:02.506Z,100645.23
2023-04-30T16:34:11.932Z,100645.39
2023-04-30T16:39:19.125Z,100645.53
2023-04-30T16:44:26.374Z,100642.73
2023-04-30T16:49:34.234Z,100643.36
2023-04-30T16:54:41.148Z,100640.69
2023-04-30T16:59:48.689Z,100648.70
2023-04-30T17:04:55.834Z,100652.20
2023-04-30T17:10:02.811Z,100659.22
2023-04-30T17:15:11.852Z,100661.77
2023-04-30T17:20:20.377Z,100663.13
2023-04-30T17:25:29.661Z,100674.20
2023-04-30T17:30:37.243Z,100677.40
2023-04-30T17:35:44.387Z,100679.45
2023-04-30T17:40:51.641Z,100683.09
2023-04-30T17:45:58.735Z,100687.85
2023-04-30T17:51:05.892Z,100691.56
2023-04-30T17:56:12.969Z,100689.32
2023-04-30T18:01:20.436Z,100688.39
2023-04-30T18:06:28.092Z,100684.09
2023-04-30T18:11:34.908Z,100686.92
2023-04-30T18:16:42.137Z,100688.42
2023-04-30T18:21:49.058Z,100691.69
2023-04-30T18:26:56.007Z,100696.66
2023-04-30T18:32:03.427Z,100702.16
2023-04-30T18:37:10.977Z,100705.70
2023-04-30T18:42:18.233Z,100711.88
2023-04-30T18:47:25.844Z,100714.66
2023-04-30T18:52:32.827Z,100717.52
2023-04-30T18:57:41.951Z,100721.33
2023-04-30T19:02:49.336Z,100726.66
2023-04-30T19:07:56.351Z,100731.20
2023-04-30T19:13:04.198Z,100729.55
2023-04-30T19:18:13.828Z,100733.14
2023-04-30T19:23:20.733Z,100735.85
2023-04-30T19:28:29.356Z,100736.85
2023-04-30T19:33:39.374Z,100738.50
2023-04-30T19:38:46.280Z,100742.92
2023-04-30T19:43:53.804Z,100742.15
2023-04-30T19:49:00.884Z,100745.32
2023-04-30T19:54:09.657Z,100747.77
2023-04-30T19:59:19.068Z,100753.92
2023-04-30T20:04:26.562Z,100756.48
2023-04-30T20:09:33.515Z,100763.95
2023-04-30T20:14:41.164Z,100763.88
2023-04-30T20:19:48.023Z,100765.34
2023-04-30T20:24:55.113Z,100770.70
2023-04-30T20:30:04.530Z,100776.06
2023-04-30T20:35:12.252Z,100775.58
2023-04-30T20:40:21.100Z,100773.58
2023-04-30T20:45:28.418Z,100777.36
2023-04-30T20:50:35.509Z,100783.70
2023-04-30T20:55:42.537Z,100794.27
2023-04-30T21:00:50.994Z,100794.11
2023-04-30T21:05:58.060Z,100798.34
2023-04-30T21:11:05.464Z,100800.38
2023-04-30T21:16:12.456Z,100801.39
2023-04-30T21:21:19.426Z,100805.11
2023-04-30T21:26:26.451Z,100811.04
2023-04-30T21:31:33.412Z,100810.49
2023-04-30T21:36:40.330Z,100812.50
2023-04-30T21:41:47.529Z,100816.37
2023-04-30T21:46:54.406Z,100812.73
2023-04-30T21:52:01.494Z,100815.38
2023-04-30T21:57:09.222Z,100819.09
2023-04-30T22:02:23.953Z,100817.83
2023-04-30T22:07:32.095Z,100821.52
2023-04-30T22:12:39.278Z,100824.70
2023-04-30T22:17:47.718Z,100825.66
2023-04-30T22:22:54.642Z,100830.51
2023-04-30T22:28:01.548Z,100830.79
2023-04-30T22:33:08.598Z,100831.40
2023-04-30T22:38:15.419Z,100835.94
2023-04-30T22:43:22.306Z,100835.19
2023-04-30T22:48:30.156Z,100832.75
2023-04-30T22:53:37.141Z,100835.40
2023-04-30T22:58:44.080Z,100834.45
2023-04-30T23:03:51.131Z,100831.60
2023-04-30T23:08:58.613Z,100830.95
2023-04-30T23:14:05.681Z,100831.20
2023-04-30T23:19:12.903Z,100825.86
2023-04-30T23:24:19.823Z,100828.64
2023-04-30T23:29:26.918Z,100825.17
2023-04-30T23:34:33.834Z,100824.59
2023-04-30T23:39:40.810Z,100824.35
2023-04-30T23:44:47.929Z,100814.97
2023-04-30T23:49:55.278Z,100810.13
2023-04-30T23:55:03.993Z,100806.81
